Terminal Aerodrome Forecast
Issued by NWS Cleveland, OH

Home | Current Version | Previous Version | Text Only | Print | Product List | Glossary On
Versions: 1 2 3 4 5 6 7 8 9 10 11 12 13 14 15 16 17 18 19 20 21 22 23 24 25 26
000
FTUS41 KCLE 231727
TAFCLE
TAF
KCLE 231727Z 2318/2424 29006KT P6SM SCT030 BKN050
     FM232100 29005KT P6SM VCTS SCT045CB BKN120
     FM240200 27005KT P6SM FEW020 BKN100
     FM241200 30008KT P6SM SCT008 BKN025
     FM241800 33010KT P6SM BKN025=

USA.gov is the U.S. government's official web portal to all federal, state and local government web resources and services.